KPVF

Placerville Airport

Placerville, California, USA
METAR KPVF 182215Z AUTO 29008KT 260V320 10SM CLR 24/24 A3007 RMK AO1
Observed Flight Rules
Jun-18 @ 22:15 UTC (34 minutes ago) Visual Flight Rules
Wind Visibility Clouds
290° at 8 knots 10 miles
  • Clear skies
Temperatures Readings
Current 24°C / 75°F
Dewpoint 24°C / 75°F
Humidity 100%
Altimeter 30.07" Hg
Pressure 1018 hPa
Elevation 789
METAR KPVF 182215Z AUTO 29008KT 260V320 10SM CLR 24/24 A3007 RMK AO1
Observed Flight Rules
Jun-18 @ 22:15 UTC
(34 minutes ago)
VFR
Wind Visibility
290° at 8 knots 10 miles
Clouds
  • Clear skies
Temperature Dewpoint
24°C / 75°F 24°C / 75°F
Humidity Altimeter Pressure
100% 30.07" Hg 1018 hPa